Vetal, South Dakota
Current Conditions -  °F | °C
As of 9:52 AM on Thursday 23 Oct 2014 (Local Time) from KIEN Reporting Station
Clear Clear  
Wind Chill:   Ceiling: Unl
Heat Index:   Visibility: 10mi
Dew Point:   Wind: 0mph
Humidity: 61%   Direction: NA
Pressure: 30.03"   Gusts: NA
Location:  43.2013°N, 101.679°W
Report Text: KIEN 231552Z AUTO 00000KT 10SM CLR 09/02 A3003 RMK AO2 SLP180 T00940022
Loading
Personal Weather Stations






























Interactive Weather Map
Tropical Storm Tracking
New forecast layout! Learn more

10-Day Weather Forecast

Advertisements
Track Severe Weather on mobile